JBU425 KRDU-KFLL
Flight info
| Callsign | JBU425 |
|---|---|
| Flight time | N/A |
| Altitude | 36000 |
| Route | ROZBO5 ROZBO GARIC JRDAN Y291 MAJIK CUUDA3 |
| Aircraft | A320/M-SDE3FGHIRWY/LB1 |
Departure
| Time | N/A |
|---|---|
| Airport | Raleigh-Durham International Airport (KRDU) |
Arrival
| Time | 2026-05-06 00:28 |
|---|---|
| Airport | Fort Lauderdale Hollywood International Airport (KFLL) |
| Time | Latitude | Longitude | Altitude | Speed | Heading |
|---|---|---|---|---|---|
| 2026-05-05 23:59 | 27.83886 | -79.41991 | 31145 ft | 460 kts | 205° |
| 2026-05-06 00:00 | 27.80799 | -79.42991 | 30139 ft | 453 kts | 204° |
| 2026-05-06 00:00 | 27.77752 | -79.43970 | 29227 ft | 444 kts | 204° |
| 2026-05-06 00:00 | 27.74759 | -79.44930 | 28353 ft | 435 kts | 204° |
| 2026-05-06 00:00 | 27.71835 | -79.45865 | 27454 ft | 427 kts | 203° |
| 2026-05-06 00:01 | 27.68960 | -79.46787 | 26580 ft | 422 kts | 203° |
| 2026-05-06 00:01 | 27.66077 | -79.47715 | 26005 ft | 416 kts | 203° |
| 2026-05-06 00:01 | 27.63230 | -79.48628 | 25563 ft | 410 kts | 203° |
| 2026-05-06 00:01 | 27.60424 | -79.49528 | 25067 ft | 407 kts | 203° |
| 2026-05-06 00:02 | 27.57641 | -79.50420 | 24602 ft | 402 kts | 203° |
| 2026-05-06 00:02 | 27.54869 | -79.51309 | 24139 ft | 398 kts | 203° |
| 2026-05-06 00:02 | 27.52164 | -79.52177 | 23683 ft | 394 kts | 202° |
| 2026-05-06 00:02 | 27.49447 | -79.53046 | 23241 ft | 390 kts | 202° |
| 2026-05-06 00:03 | 27.46751 | -79.53909 | 22791 ft | 386 kts | 202° |
| 2026-05-06 00:03 | 27.44112 | -79.54753 | 22370 ft | 382 kts | 202° |
| 2026-05-06 00:03 | 27.41533 | -79.55577 | 21949 ft | 378 kts | 202° |
| 2026-05-06 00:03 | 27.38919 | -79.56412 | 21505 ft | 376 kts | 202° |
| 2026-05-06 00:04 | 27.36338 | -79.57227 | 21053 ft | 374 kts | 201° |
| 2026-05-06 00:04 | 27.33720 | -79.58052 | 20601 ft | 371 kts | 201° |
| 2026-05-06 00:04 | 27.31156 | -79.58861 | 20170 ft | 369 kts | 201° |
| 2026-05-06 00:04 | 27.28615 | -79.59661 | 19763 ft | 366 kts | 201° |
| 2026-05-06 00:05 | 27.23623 | -79.61231 | 18909 ft | 361 kts | 200° |
| 2026-05-06 00:05 | 27.21148 | -79.62009 | 18509 ft | 359 kts | 200° |
| 2026-05-06 00:05 | 27.18704 | -79.62777 | 18097 ft | 356 kts | 200° |
| 2026-05-06 00:06 | 27.16273 | -79.63554 | 17683 ft | 354 kts | 200° |
| 2026-05-06 00:06 | 27.13841 | -79.64334 | 17276 ft | 352 kts | 200° |
| 2026-05-06 00:06 | 27.11421 | -79.65109 | 16875 ft | 349 kts | 199° |
| 2026-05-06 00:06 | 27.08998 | -79.65884 | 16472 ft | 347 kts | 199° |
| 2026-05-06 00:07 | 27.06579 | -79.66658 | 16059 ft | 346 kts | 199° |
| 2026-05-06 00:07 | 27.04192 | -79.67422 | 15654 ft | 344 kts | 199° |
| 2026-05-06 00:07 | 27.01760 | -79.68199 | 15242 ft | 342 kts | 199° |
| 2026-05-06 00:07 | 26.99383 | -79.68959 | 14837 ft | 340 kts | 199° |
| 2026-05-06 00:08 | 26.97023 | -79.69712 | 14436 ft | 339 kts | 199° |
| 2026-05-06 00:08 | 26.94672 | -79.70461 | 14046 ft | 337 kts | 199° |
| 2026-05-06 00:08 | 26.92327 | -79.71210 | 13669 ft | 335 kts | 199° |
| 2026-05-06 00:08 | 26.89990 | -79.71955 | 13283 ft | 332 kts | 199° |
| 2026-05-06 00:09 | 26.87680 | -79.72690 | 12918 ft | 330 kts | 199° |
| 2026-05-06 00:09 | 26.85403 | -79.73415 | 12535 ft | 328 kts | 199° |
| 2026-05-06 00:09 | 26.83115 | -79.74144 | 12148 ft | 326 kts | 199° |
| 2026-05-06 00:09 | 26.80851 | -79.74863 | 11769 ft | 324 kts | 199° |
| 2026-05-06 00:10 | 26.78638 | -79.75565 | 11406 ft | 322 kts | 199° |
| 2026-05-06 00:10 | 26.76390 | -79.76275 | 11029 ft | 320 kts | 199° |
| 2026-05-06 00:10 | 26.74190 | -79.76969 | 10671 ft | 318 kts | 198° |
| 2026-05-06 00:10 | 26.72001 | -79.77660 | 10473 ft | 309 kts | 198° |
| 2026-05-06 00:11 | 26.69867 | -79.78361 | 10307 ft | 300 kts | 201° |
| 2026-05-06 00:11 | 26.67859 | -79.79154 | 10070 ft | 295 kts | 202° |
| 2026-05-06 00:11 | 26.65865 | -79.79968 | 9744 ft | 293 kts | 203° |
| 2026-05-06 00:11 | 26.63912 | -79.80770 | 9418 ft | 291 kts | 203° |
| 2026-05-06 00:12 | 26.61935 | -79.81576 | 9093 ft | 289 kts | 203° |
| 2026-05-06 00:12 | 26.59966 | -79.82380 | 8772 ft | 287 kts | 203° |
| 2026-05-06 00:12 | 26.58030 | -79.83170 | 8436 ft | 286 kts | 203° |
| 2026-05-06 00:12 | 26.56099 | -79.83958 | 8107 ft | 285 kts | 203° |
| 2026-05-06 00:13 | 26.54224 | -79.84795 | 7783 ft | 282 kts | 205° |
| 2026-05-06 00:13 | 26.52373 | -79.85664 | 7448 ft | 280 kts | 206° |
| 2026-05-06 00:13 | 26.50526 | -79.86536 | 7132 ft | 278 kts | 205° |
| 2026-05-06 00:13 | 26.48696 | -79.87396 | 6823 ft | 277 kts | 205° |
| 2026-05-06 00:14 | 26.46901 | -79.88240 | 6525 ft | 275 kts | 205° |
| 2026-05-06 00:14 | 26.45130 | -79.89073 | 6235 ft | 273 kts | 205° |
| 2026-05-06 00:14 | 26.43373 | -79.89899 | 5932 ft | 271 kts | 205° |
| 2026-05-06 00:14 | 26.41595 | -79.90734 | 5602 ft | 271 kts | 205° |
| 2026-05-06 00:15 | 26.39814 | -79.91570 | 5251 ft | 272 kts | 204° |
| 2026-05-06 00:15 | 26.38043 | -79.92479 | 4892 ft | 272 kts | 208° |
| 2026-05-06 00:15 | 26.36374 | -79.93512 | 4553 ft | 272 kts | 211° |
| 2026-05-06 00:15 | 26.34682 | -79.94600 | 4210 ft | 273 kts | 211° |
| 2026-05-06 00:16 | 26.33004 | -79.95684 | 3885 ft | 273 kts | 210° |
| 2026-05-06 00:16 | 26.31316 | -79.96771 | 3556 ft | 273 kts | 210° |
| 2026-05-06 00:16 | 26.29639 | -79.97849 | 3248 ft | 273 kts | 210° |
| 2026-05-06 00:16 | 26.27936 | -79.98942 | 3003 ft | 272 kts | 209° |
| 2026-05-06 00:17 | 26.26296 | -79.99992 | 2987 ft | 273 kts | 210° |
| 2026-05-06 00:17 | 26.24628 | -80.01062 | 2985 ft | 274 kts | 210° |
| 2026-05-06 00:17 | 26.22943 | -80.02144 | 2985 ft | 274 kts | 210° |
| 2026-05-06 00:17 | 26.21278 | -80.03213 | 2984 ft | 274 kts | 210° |
| 2026-05-06 00:18 | 26.19601 | -80.04294 | 2982 ft | 274 kts | 211° |
| 2026-05-06 00:18 | 26.18140 | -80.05643 | 2975 ft | 274 kts | 232° |
| 2026-05-06 00:18 | 26.17240 | -80.07529 | 2986 ft | 274 kts | 251° |
| 2026-05-06 00:18 | 26.16658 | -80.09509 | 2986 ft | 273 kts | 254° |
| 2026-05-06 00:19 | 26.16115 | -80.11481 | 2985 ft | 273 kts | 254° |
| 2026-05-06 00:19 | 26.15561 | -80.13436 | 2985 ft | 274 kts | 254° |
| 2026-05-06 00:19 | 26.15138 | -80.15428 | 2982 ft | 273 kts | 263° |
| 2026-05-06 00:19 | 26.14985 | -80.17499 | 2983 ft | 272 kts | 270° |
| 2026-05-06 00:20 | 26.14988 | -80.19599 | 2984 ft | 271 kts | 272° |
| 2026-05-06 00:20 | 26.15019 | -80.21706 | 2984 ft | 271 kts | 272° |
| 2026-05-06 00:20 | 26.15046 | -80.23782 | 2983 ft | 270 kts | 272° |
| 2026-05-06 00:20 | 26.15065 | -80.25906 | 2983 ft | 271 kts | 272° |
| 2026-05-06 00:21 | 26.15078 | -80.28013 | 2984 ft | 271 kts | 271° |
| 2026-05-06 00:21 | 26.15088 | -80.30157 | 2986 ft | 271 kts | 271° |
| 2026-05-06 00:21 | 26.15097 | -80.32306 | 2987 ft | 271 kts | 271° |
| 2026-05-06 00:21 | 26.15104 | -80.34446 | 2989 ft | 271 kts | 271° |
| 2026-05-06 00:22 | 26.15084 | -80.36602 | 2990 ft | 271 kts | 270° |
| 2026-05-06 00:22 | 26.14860 | -80.38773 | 2887 ft | 271 kts | 250° |
| 2026-05-06 00:22 | 26.13741 | -80.40474 | 2520 ft | 272 kts | 214° |
| 2026-05-06 00:22 | 26.11953 | -80.41150 | 2179 ft | 268 kts | 176° |
| 2026-05-06 00:23 | 26.10290 | -80.40597 | 2021 ft | 248 kts | 140° |
| 2026-05-06 00:23 | 26.09325 | -80.39271 | 1912 ft | 231 kts | 113° |
| 2026-05-06 00:23 | 26.08718 | -80.37726 | 1796 ft | 217 kts | 108° |
| 2026-05-06 00:23 | 26.08224 | -80.36266 | 1775 ft | 198 kts | 104° |
| 2026-05-06 00:24 | 26.07923 | -80.34843 | 1778 ft | 190 kts | 95° |
| 2026-05-06 00:24 | 26.07804 | -80.33412 | 1787 ft | 189 kts | 89° |
| 2026-05-06 00:24 | 26.07778 | -80.31997 | 1853 ft | 179 kts | 87° |
| 2026-05-06 00:24 | 26.07775 | -80.30673 | 1810 ft | 160 kts | 87° |
| 2026-05-06 00:25 | 26.07771 | -80.29468 | 1769 ft | 145 kts | 86° |
| 2026-05-06 00:25 | 26.07767 | -80.28362 | 1777 ft | 143 kts | 86° |
| 2026-05-06 00:25 | 26.07760 | -80.27264 | 1791 ft | 142 kts | 86° |
| 2026-05-06 00:25 | 26.07754 | -80.26215 | 1657 ft | 139 kts | 86° |
| 2026-05-06 00:26 | 26.07747 | -80.25157 | 1476 ft | 137 kts | 86° |
| 2026-05-06 00:26 | 26.07740 | -80.24116 | 1300 ft | 136 kts | 86° |
| 2026-05-06 00:26 | 26.07734 | -80.23099 | 1130 ft | 136 kts | 87° |
| 2026-05-06 00:26 | 26.07727 | -80.22053 | 958 ft | 136 kts | 87° |
| 2026-05-06 00:27 | 26.07720 | -80.21024 | 791 ft | 135 kts | 87° |
| 2026-05-06 00:27 | 26.07707 | -80.19989 | 623 ft | 138 kts | 88° |
| 2026-05-06 00:27 | 26.07707 | -80.18916 | 500 ft | 138 kts | 86° |
| 2026-05-06 00:27 | 26.07700 | -80.17858 | 328 ft | 139 kts | 88° |
| 2026-05-06 00:28 | 26.07700 | -80.16800 | 110 ft | 140 kts | 88° |
| 2026-05-06 00:28 | 26.07689 | -80.15720 | 15 ft | 132 kts | 88° |
| 2026-05-06 00:28 | 26.07687 | -80.14810 | 10 ft | 93 kts | 89° |
| 2026-05-06 00:28 | 26.07683 | -80.14273 | 10 ft | 42 kts | 91° |
| 2026-05-06 00:29 | 26.07680 | -80.14090 | 9 ft | 19 kts | 89° |
| 2026-05-06 00:29 | 26.07604 | -80.14008 | 9 ft | 13 kts | 187° |
| 2026-05-06 00:29 | 26.07560 | -80.14095 | 9 ft | 17 kts | 276° |
| 2026-05-06 00:29 | 26.07558 | -80.14239 | 9 ft | 21 kts | 267° |
| 2026-05-06 00:30 | 26.07559 | -80.14407 | 9 ft | 20 kts | 272° |
| 2026-05-06 00:30 | 26.07560 | -80.14568 | 9 ft | 20 kts | 269° |
| 2026-05-06 00:30 | 26.07550 | -80.14730 | 9 ft | 21 kts | 229° |
| 2026-05-06 00:30 | 26.07419 | -80.14842 | 9 ft | 23 kts | 212° |
| 2026-05-06 00:31 | 26.07269 | -80.14853 | 9 ft | 20 kts | 180° |
| 2026-05-06 00:31 | 26.07126 | -80.14852 | 9 ft | 20 kts | 181° |
| 2026-05-06 00:31 | 26.07008 | -80.14775 | 9 ft | 19 kts | 135° |
| 2026-05-06 00:31 | 26.06902 | -80.14669 | 9 ft | 19 kts | 137° |
| 2026-05-06 00:32 | 26.06803 | -80.14569 | 9 ft | 18 kts | 115° |
| 2026-05-06 00:32 | 26.06810 | -80.14446 | 9 ft | 11 kts | 78° |
| 2026-05-06 00:32 | 26.06854 | -80.14429 | 9 ft | 1 kts | 353° |
| 2026-05-06 00:32 | 26.06866 | -80.14429 | 9 ft | 2 kts | 2° |
| 2026-05-06 00:33 | 26.06878 | -80.14429 | 9 ft | 1 kts | 1° |
| 2026-05-06 00:33 | 26.06885 | -80.14429 | 9 ft | 0 kts | 1° |